Latest Weather Observations for Point Wilson

IDV60901

Issued at 9:31 am EDT Wednesday 24 October 2018 (issued every 10 minutes, with the page automatically refreshed every 10 minutes)

About weather observations | Map of Melbourne area stations | Latest observations for Melbourne area | Other Formats
Station Details ID: 087166 Name: POINT WILSON Lat: -38.10 Lon: 144.54 Height: 18.0 m
Data from the previous 72 hours. | See also: Recent months for locations in Victoria
Date/Time
EDT
Temp
°C
App
Temp
°C
Dew
Point
°C
Rel
Hum
%
Delta-T
°C
Wind Press
QNH
hPa
Press
MSL
hPa
Rain since
9am
mm
Dir  Spd
km/h
Gust
km/h
Spd
kts
Gust
kts
24/09:30am - - - - - SSW 17 24 9 13 - - -
24/09:00am - - - - - WSW 13 17 7 9 - - -
24/08:30am - - - - - WSW 15 17 8 9 - - -
24/08:00am - - - - - WSW 17 20 9 11 - - -
24/07:30am - - - - - WSW 17 22 9 12 - - -
24/07:00am - - - - - WSW 15 20 8 11 - - -
24/06:30am - - - - - WSW 20 24 11 13 - - -
24/06:00am - - - - - SW 20 24 11 13 - - -
24/05:30am - - - - - WSW 20 28 11 15 - - -
24/05:00am - - - - - W 22 28 12 15 - - -
24/04:30am - - - - - W 22 28 12 15 - - -
24/04:00am - - - - - WNW 20 22 11 12 - - -
24/03:30am - - - - - WNW 20 22 11 12 - - -
24/03:00am - - - - - WSW 19 24 10 13 - - -
24/02:30am - - - - - WNW 20 26 11 14 - - -
24/02:00am - - - - - WSW 20 28 11 15 - - -
24/01:30am - - - - - WNW 20 24 11 13 - - -
24/01:00am - - - - - WSW 22 28 12 15 - - -
24/12:30am - - - - - WSW 19 22 10 12 - - -
24/12:00am - - - - - WSW 20 24 11 13 - - -
 
Date/Time
EDT
Temp
°C
App
Temp
°C
Dew
Point
°C
Rel
Hum
%
Delta-T
°C
Wind Press
QNH
hPa
Press
MSL
hPa
Rain since
9am
mm
Dir  Spd
km/h
Gust
km/h
Spd
kts
Gust
kts
23/11:30pm - - - - - SW 22 26 12 14 - - -
23/11:00pm - - - - - SW 24 30 13 16 - - -
23/10:30pm - - - - - SW 28 32 15 17 - - -
23/10:00pm - - - - - SW 32 35 17 19 - - -
23/09:30pm - - - - - SW 24 32 13 17 - - -
23/09:00pm - - - - - WSW 30 35 16 19 - - -
23/08:30pm - - - - - SW 32 39 17 21 - - -
23/08:00pm - - - - - SSW 28 32 15 17 - - -
23/07:30pm - - - - - SSW 30 35 16 19 - - -
23/07:00pm - - - - - SSW 39 46 21 25 - - -
23/06:30pm - - - - - SSW 43 48 23 26 - - -
23/06:00pm - - - - - SSW 37 41 20 22 - - -
23/05:30pm - - - - - SSW 32 39 17 21 - - -
23/05:00pm - - - - - SSW 35 41 19 22 - - -
23/04:30pm - - - - - SSW 35 41 19 22 - - -
23/04:00pm - - - - - SSW 32 39 17 21 - - -
23/03:30pm - - - - - SSW 24 30 13 16 - - -
23/03:00pm - - - - - SSW 30 33 16 18 - - -
23/02:30pm - - - - - SSW 26 32 14 17 - - -
23/02:00pm - - - - - S 15 17 8 9 - - -
23/01:30pm - - - - - SW 26 32 14 17 - - -
23/01:00pm - - - - - WSW 26 35 14 19 - - -
23/12:30pm - - - - - WSW 19 24 10 13 - - -
23/12:00pm - - - - - WSW 24 32 13 17 - - -
23/11:30am - - - - - WSW 26 33 14 18 - - -
23/11:00am - - - - - SW 20 24 11 13 - - -
23/10:30am - - - - - WSW 26 32 14 17 - - -
23/10:00am - - - - - WSW 28 32 15 17 - - -
23/09:30am - - - - - WSW 28 32 15 17 - - -
23/09:00am - - - - - WSW 28 32 15 17 - - -
23/08:30am - - - - - W 20 28 11 15 - - -
23/08:00am - - - - - NW 11 17 6 9 - - -
23/07:30am - - - - - WSW 11 15 6 8 - - -
23/07:00am - - - - - WSW 19 22 10 12 - - -
23/06:30am - - - - - WSW 17 20 9 11 - - -
23/06:00am - - - - - WSW 20 26 11 14 - - -
23/05:30am - - - - - WNW 24 30 13 16 - - -
23/05:00am - - - - - WNW 13 15 7 8 - - -
23/04:30am - - - - - WNW 11 15 6 8 - - -
23/04:00am - - - - - NW 13 15 7 8 - - -
23/03:30am - - - - - CALM 0 0 0 0 - - -
23/03:00am - - - - - SW 9 15 5 8 - - -
23/02:30am - - - - - WSW 19 20 10 11 - - -
23/02:00am - - - - - W 9 15 5 8 - - -
23/01:30am - - - - - WNW 11 13 6 7 - - -
23/01:00am - - - - - SSW 11 13 6 7 - - -
23/12:30am - - - - - S 17 19 9 10 - - -
23/12:00am - - - - - SSW 22 26 12 14 - - -
 
Date/Time
EDT
Temp
°C
App
Temp
°C
Dew
Point
°C
Rel
Hum
%
Delta-T
°C
Wind Press
QNH
hPa
Press
MSL
hPa
Rain since
9am
mm
Dir  Spd
km/h
Gust
km/h
Spd
kts
Gust
kts
22/11:30pm - - - - - SW 28 32 15 17 - - -
22/11:00pm - - - - - SW 28 32 15 17 - - -
22/10:30pm - - - - - SSW 37 46 20 25 - - -
22/10:00pm - - - - - S 35 43 19 23 - - -
22/09:30pm - - - - - S 33 43 18 23 - - -
22/09:00pm - - - - - SW 22 35 12 19 - - -
22/08:30pm - - - - - NNE 32 35 17 19 - - -
22/08:00pm - - - - - NNE 32 35 17 19 - - -
22/07:30pm - - - - - - - - - - - - -
22/07:00pm - - - - - N 30 35 16 19 - - -
22/06:30pm - - - - - N 32 39 17 21 - - -
22/06:00pm - - - - - NNE 32 37 17 20 - - -
22/05:30pm - - - - - N 32 37 17 20 - - -
22/05:00pm - - - - - N 33 44 18 24 - - -
22/04:30pm - - - - - N 35 43 19 23 - - -
22/04:00pm - - - - - NNW 37 56 20 30 - - -
22/03:55pm - - - - - NNW 33 54 18 29 - - -
22/03:30pm - - - - - NNW 35 46 19 25 - - -
22/03:00pm - - - - - N 33 46 18 25 - - -
22/02:30pm - - - - - NNW 33 48 18 26 - - -
22/02:00pm - - - - - N 33 44 18 24 - - -
22/01:30pm - - - - - N 30 39 16 21 - - -
22/01:00pm - - - - - N 32 37 17 20 - - -
22/12:30pm - - - - - NNW 32 39 17 21 - - -
22/12:00pm - - - - - NNW 32 44 17 24 - - -
22/11:30am - - - - - N 28 35 15 19 - - -
22/11:00am - - - - - NNW 32 39 17 21 - - -
22/10:30am - - - - - NE 19 24 10 13 - - -
22/10:00am - - - - - NE 20 24 11 13 - - -
22/09:30am - - - - - NNE 24 28 13 15 - - -
22/09:00am - - - - - NNE 24 28 13 15 - - -
22/08:30am - - - - - NE 24 28 13 15 - - -
22/08:00am - - - - - NE 24 28 13 15 - - -
22/07:30am - - - - - NE 26 30 14 16 - - -
22/07:00am - - - - - NE 19 20 10 11 - - -
22/06:30am - - - - - NE 19 22 10 12 - - -
22/06:00am - - - - - NNE 17 19 9 10 - - -
22/05:30am - - - - - NNE 13 17 7 9 - - -
22/05:00am - - - - - N 13 15 7 8 - - -
22/04:30am - - - - - N 13 15 7 8 - - -
22/04:00am - - - - - N 15 17 8 9 - - -
22/03:30am - - - - - NNE 13 15 7 8 - - -
22/03:00am - - - - - N 13 17 7 9 - - -
22/02:30am - - - - - NNE 15 17 8 9 - - -
22/02:00am - - - - - NNE 15 19 8 10 - - -
22/01:30am - - - - - NNE 17 22 9 12 - - -
22/01:00am - - - - - ENE 20 24 11 13 - - -
22/12:30am - - - - - ENE 17 20 9 11 - - -
22/12:00am - - - - - E 13 17 7 9 - - -
 
Date/Time
EDT
Temp
°C
App
Temp
°C
Dew
Point
°C
Rel
Hum
%
Delta-T
°C
Wind Press
QNH
hPa
Press
MSL
hPa
Rain since
9am
mm
Dir  Spd
km/h
Gust
km/h
Spd
kts
Gust
kts
21/11:30pm - - - - - ESE 11 13 6 7 - - -
21/11:00pm - - - - - E 11 15 6 8 - - -
21/10:30pm - - - - - SE 13 15 7 8 - - -
21/10:00pm - - - - - SSE 19 22 10 12 - - -
21/09:30pm - - - - - S 20 22 11 12 - - -
21/09:00pm - - - - - S 19 22 10 12 - - -
21/08:30pm - - - - - S 20 24 11 13 - - -
21/08:00pm - - - - - S 20 24 11 13 - - -
21/07:30pm - - - - - S 20 24 11 13 - - -
21/07:00pm - - - - - S 20 24 11 13 - - -
21/06:30pm - - - - - SSE 20 24 11 13 - - -
21/06:00pm - - - - - E 15 20 8 11 - - -
21/05:30pm - - - - - E 17 20 9 11 - - -
21/05:00pm - - - - - E 20 22 11 12 - - -
21/04:30pm - - - - - ENE 15 17 8 9 - - -
21/04:00pm - - - - - ENE 13 17 7 9 - - -
21/03:30pm - - - - - NE 11 13 6 7 - - -
21/03:00pm - - - - - ENE 11 15 6 8 - - -
21/02:30pm - - - - - ENE 7 9 4 5 - - -
21/02:00pm - - - - - CALM 0 0 0 0 - - -
21/01:30pm - - - - - CALM 0 0 0 0 - - -
21/01:00pm - - - - - W 7 9 4 5 - - -
21/12:30pm - - - - - CALM 0 0 0 0 - - -
21/12:00pm - - - - - SW 2 7 1 4 - - -
21/11:30am - - - - - WSW 9 11 5 6 - - -
21/11:00am - - - - - WSW 7 9 4 5 - - -
21/10:30am - - - - - WNW 7 9 4 5 - - -
21/10:00am - - - - - WSW 9 15 5 8 - - -

Latest Capital City Observations: Canberra | Sydney | Melbourne | Brisbane | Adelaide | Perth | Hobart | Darwin

Other Formats:

Comma delimited format used in spreadsheet applications
http://www.bom.gov.au/fwo/IDV60901/IDV60901.94847.axf

JavaScript Object Notation format (JSON) in row-major order
http://www.bom.gov.au/fwo/IDV60901/IDV60901.94847.json